Time;durP1;ratioP1;P1;durP2;ratioP2;P2;SDS_P1;SDS_P2;PMS_P1;PMS_P2;Temp;Humidity;BMP_temperature;BMP_pressure;BME280_temperature;BME280_humidity;BME280_pressure;Samples;Min_cycle;Max_cycle;Signal;HPM_P1;HPM_P2
2021/09/20 05:01:21;;;;;;;11.85;8.60;;;;;;;11.75;100.00;94714.25;5668403;23;20058;-85
2021/09/20 05:03:47;;;;;;;9.93;8.93;;;;;;;11.92;100.00;94716.44;4958869;28;20058;-84
2021/09/20 05:06:12;;;;;;;10.20;8.23;;;;;;;11.96;100.00;94728.06;4927902;29;20035;-85
2021/09/20 05:08:37;;;;;;;9.27;8.30;;;;;;;12.08;100.00;94744.75;4950059;29;20035;-81
2021/09/20 05:11:03;;;;;;;15.05;11.60;;;;;;;11.93;100.00;94710.25;4934703;29;20027;-81
2021/09/20 05:13:28;;;;;;;11.65;9.80;;;;;;;12.15;100.00;94750.00;4939394;28;20034;-85
2021/09/20 05:15:54;;;;;;;11.80;9.57;;;;;;;12.18;100.00;94752.22;4970612;28;20023;-86
2021/09/20 05:18:19;;;;;;;10.57;9.48;;;;;;;12.12;100.00;94763.34;4950621;28;20102;-87
2021/09/20 05:20:45;;;;;;;13.73;9.68;;;;;;;12.24;100.00;94756.66;4934156;29;20043;-84
2021/09/20 05:23:10;;;;;;;8.73;7.82;;;;;;;12.39;100.00;94749.63;4934399;29;20032;-85
2021/09/20 05:25:36;;;;;;;9.55;8.48;;;;;;;12.42;100.00;94751.06;4951082;29;20412;-89
2021/09/20 05:28:02;;;;;;;13.60;10.30;;;;;;;12.46;100.00;94739.28;4950082;29;20373;-88
2021/09/20 05:30:27;;;;;;;10.80;9.10;;;;;;;12.72;100.00;94736.88;4933823;29;20030;-86
2021/09/20 05:32:53;;;;;;;9.70;8.05;;;;;;;13.07;100.00;94745.53;4950086;29;20417;-86
2021/09/20 05:35:18;;;;;;;15.35;8.63;;;;;;;13.20;100.00;94730.03;4933884;29;20065;-84
2021/09/20 05:37:48;;;;;;;13.65;8.25;;;;;;;13.64;100.00;94727.03;4918877;29;20389;-85
2021/09/20 05:40:14;;;;;;;10.00;7.20;;;;;;;15.78;99.72;94668.13;4950862;29;20024;-85
2021/09/20 05:42:40;;;;;;;9.38;8.48;;;;;;;14.73;98.02;94639.81;4951231;29;20042;-87
2021/09/20 05:45:06;;;;;;;8.55;7.57;;;;;;;14.11;100.00;94645.41;4946355;29;20032;-85
2021/09/20 05:47:32;;;;;;;10.02;9.10;;;;;;;14.19;100.00;94677.28;4914802;29;20140;-90
2021/09/20 05:49:57;;;;;;;12.77;8.02;;;;;;;14.31;100.00;94684.50;4900337;29;20027;-89
2021/09/20 05:52:23;;;;;;;7.70;6.82;;;;;;;14.80;100.00;94664.06;4915620;29;20043;-89
2021/09/20 05:54:49;;;;;;;8.00;7.20;;;;;;;15.80;99.07;94634.75;4915713;29;20481;-83
2021/09/20 05:57:15;;;;;;;10.25;6.40;;;;;;;15.76;95.46;94604.88;4899244;29;20031;-84
2021/09/20 05:59:40;;;;;;;9.05;7.20;;;;;;;15.81;96.63;94621.50;4899337;29;20042;-84
2021/09/20 06:02:06;;;;;;;11.70;7.18;;;;;;;15.72;97.32;94607.09;4920990;29;20052;-85
2021/09/20 06:04:32;;;;;;;8.05;7.45;;;;;;;15.53;98.05;94615.06;4894307;29;20036;-85
2021/09/20 06:06:57;;;;;;;7.60;7.00;;;;;;;15.30;99.29;94611.13;4895559;29;20479;-85
2021/09/20 06:09:23;;;;;;;9.45;6.28;;;;;;;15.55;99.19;94616.44;4877938;29;20474;-89
2021/09/20 06:11:48;;;;;;;7.97;7.13;;;;;;;15.16;100.00;94567.81;4912607;29;20062;-84
2021/09/20 06:14:13;;;;;;;8.95;7.53;;;;;;;15.20;100.00;94589.88;4905193;29;20047;-83
2021/09/20 06:16:39;;;;;;;8.88;7.20;;;;;;;15.16;100.00;94598.31;4932884;29;20450;-87
2021/09/20 06:19:04;;;;;;;7.13;6.53;;;;;;;15.36;100.00;94601.66;4950408;29;20505;-85
2021/09/20 06:21:30;;;;;;;7.65;6.95;;;;;;;15.32;100.00;94585.59;4946948;29;20027;-84
2021/09/20 06:23:55;;;;;;;15.60;8.20;;;;;;;15.38;100.00;94606.69;4930447;29;20031;-84
2021/09/20 06:26:21;;;;;;;9.85;8.00;;;;;;;15.25;100.00;94615.38;4929425;29;20047;-86
2021/09/20 06:28:46;;;;;;;8.73;7.28;;;;;;;15.19;100.00;94614.38;4942184;29;20046;-83
2021/09/20 06:31:12;;;;;;;7.47;6.88;;;;;;;15.22;100.00;94600.91;4948431;29;20063;-86
2021/09/20 06:33:37;;;;;;;9.77;7.00;;;;;;;15.53;100.00;94592.38;4950599;29;20046;-85
2021/09/20 06:36:03;;;;;;;8.75;7.80;;;;;;;15.46;100.00;94581.13;4927736;29;20025;-83
2021/09/20 06:38:28;;;;;;;10.30;7.20;;;;;;;15.30;100.00;94582.41;4894539;29;20035;-85
2021/09/20 06:40:54;;;;;;;8.65;7.47;;;;;;;15.29;100.00;94580.81;4902949;29;20063;-84
2021/09/20 06:43:19;;;;;;;8.32;7.57;;;;;;;15.48;100.00;94596.59;4927414;29;20035;-84
2021/09/20 06:45:45;;;;;;;8.82;7.68;;;;;;;15.43;100.00;94575.50;4930089;29;20047;-85
2021/09/20 06:48:10;;;;;;;9.85;8.48;;;;;;;15.47;100.00;94593.16;4898863;29;20126;-90
2021/09/20 06:50:36;;;;;;;10.65;9.57;;;;;;;15.51;100.00;94598.81;4915018;29;20031;-90
2021/09/20 06:53:01;;;;;;;9.77;8.77;;;;;;;15.30;100.00;94607.72;4930423;29;20031;-88
2021/09/20 06:55:27;;;;;;;10.38;8.32;;;;;;;15.59;100.00;94615.00;4929968;29;20032;-89
2021/09/20 06:58:01;;;;;;;8.57;7.60;;;;;;;15.70;100.00;94597.88;4934066;29;20037;-85
2021/09/20 07:00:27;;;;;;;8.40;7.60;;;;;;;15.68;100.00;94595.47;4948392;29;20467;-88
2021/09/20 07:02:53;;;;;;;9.68;7.65;;;;;;;15.73;100.00;94581.81;4967052;28;20043;-86
2021/09/20 07:05:19;;;;;;;10.07;7.18;;;;;;;15.62;100.00;94574.63;4950896;28;20109;-86
2021/09/20 07:07:44;;;;;;;7.78;7.07;;;;;;;15.63;100.00;94581.47;4936312;28;20026;-85
2021/09/20 07:10:12;;;;;;;9.70;8.90;;;;;;;15.40;100.00;94581.16;4967291;28;20046;-87
2021/09/20 07:12:37;;;;;;;8.95;8.07;;;;;;;15.28;100.00;94589.63;4952387;28;20027;-81
2021/09/20 07:15:04;;;;;;;9.70;8.45;;;;;;;15.43;100.00;94596.41;4949318;28;20026;-83
2021/09/20 07:17:30;;;;;;;8.85;8.07;;;;;;;15.48;100.00;94609.63;4950897;28;20420;-85
2021/09/20 07:19:55;;;;;;;14.15;12.80;;;;;;;15.32;100.00;94632.56;4949437;28;20024;-83
2021/09/20 07:22:21;;;;;;;18.40;16.52;;;;;;;15.27;100.00;94631.59;4950293;28;20027;-84
2021/09/20 07:24:46;;;;;;;18.15;16.52;;;;;;;15.16;100.00;94627.03;4952337;29;20042;-83
2021/09/20 07:27:12;;;;;;;19.65;17.58;;;;;;;15.49;100.00;94627.72;4934225;29;20054;-84
2021/09/20 07:29:37;;;;;;;19.90;17.90;;;;;;;16.57;100.00;94605.63;4953516;29;20031;-91
2021/09/20 07:32:03;;;;;;;20.27;18.23;;;;;;;16.84;96.87;94600.94;4952462;29;20027;-84
2021/09/20 07:34:29;;;;;;;16.88;15.38;;;;;;;16.59;97.75;94603.63;4953236;29;20125;-84
2021/09/20 07:36:54;;;;;;;20.85;18.85;;;;;;;15.55;100.00;94616.44;4951309;29;20067;-84
2021/09/20 07:39:20;;;;;;;191.32;21.98;;;;;;;15.92;100.00;94612.19;4927477;29;20509;-83
2021/09/20 07:41:45;;;;;;;17.27;15.68;;;;;;;16.01;100.00;94626.59;4943723;29;20504;-83
2021/09/20 07:44:11;;;;;;;15.75;14.38;;;;;;;16.22;100.00;94634.06;4921183;29;20536;-83
2021/09/20 07:46:37;;;;;;;17.92;16.33;;;;;;;16.09;100.00;94628.94;4931362;29;20027;-83
2021/09/20 07:49:02;;;;;;;18.92;17.23;;;;;;;16.08;100.00;94626.56;4938773;29;20675;-83
2021/09/20 07:51:28;;;;;;;20.27;18.00;;;;;;;16.16;100.00;94611.41;4937275;29;20086;-81
2021/09/20 07:53:53;;;;;;;19.15;17.50;;;;;;;16.19;100.00;94616.22;4951329;29;20035;-82
2021/09/20 07:56:19;;;;;;;17.77;16.13;;;;;;;16.24;100.00;94639.91;4950378;29;20031;-82
2021/09/20 07:58:44;;;;;;;18.60;16.85;;;;;;;16.24;100.00;94629.44;4948028;29;20509;-82
2021/09/20 08:01:10;;;;;;;17.17;15.30;;;;;;;16.33;100.00;94630.78;4940889;29;20043;-82
2021/09/20 08:03:35;;;;;;;21.58;17.23;;;;;;;16.48;100.00;94613.94;4936450;29;20042;-83
2021/09/20 08:06:01;;;;;;;27.38;22.60;;;;;;;16.15;99.49;94617.63;4949288;29;20031;-83
2021/09/20 08:08:26;;;;;;;22.58;20.38;;;;;;;16.52;99.87;94620.34;4942971;29;20036;-82
2021/09/20 08:10:52;;;;;;;20.85;18.63;;;;;;;16.08;99.81;94596.00;4905294;29;20086;-83
2021/09/20 08:13:18;;;;;;;19.73;17.67;;;;;;;16.35;100.00;94604.41;4931690;29;20035;-83
2021/09/20 08:15:44;;;;;;;19.27;17.52;;;;;;;17.54;95.10;94575.13;4944154;29;20410;-83
2021/09/20 08:18:10;;;;;;;17.58;15.88;;;;;;;18.58;90.20;94580.59;4916503;29;20028;-82
2021/09/20 08:20:36;;;;;;;40.63;17.90;;;;;;;19.08;85.21;94567.72;4915906;29;20043;-83
2021/09/20 08:23:01;;;;;;;1529.30;78.57;;;;;;;17.76;91.24;94573.63;4930290;29;20059;-78
2021/09/20 08:25:27;;;;;;;35.97;17.48;;;;;;;17.38;95.64;94579.97;4932483;29;20031;-80
2021/09/20 08:27:53;;;;;;;16.08;14.73;;;;;;;18.08;92.17;94558.41;4938671;29;20652;-82
2021/09/20 08:30:20;;;;;;;895.45;53.78;;;;;;;18.85;87.39;94544.16;4951188;29;20039;-81
2021/09/20 08:32:46;;;;;;;38.13;15.23;;;;;;;17.71;92.96;94555.97;4948152;28;20680;-78
2021/09/20 08:35:11;;;;;;;15.73;11.70;;;;;;;18.86;89.37;94537.88;4948383;29;20047;-81
2021/09/20 08:37:37;;;;;;;44.33;12.93;;;;;;;19.65;84.58;94541.53;4942868;29;20042;-77
2021/09/20 08:40:05;;;;;;;11.27;10.23;;;;;;;20.45;82.79;94540.19;4948375;29;20137;-79
2021/09/20 08:42:31;;;;;;;10.90;9.68;;;;;;;20.52;81.12;94521.59;4918679;29;20167;-80
2021/09/20 08:44:56;;;;;;;10.07;9.02;;;;;;;20.37;80.75;94527.44;4943984;28;20118;-78
2021/09/20 08:47:22;;;;;;;11.57;10.48;;;;;;;19.35;85.41;94534.66;4934919;28;20038;-81
2021/09/20 08:49:50;;;;;;;49.30;11.30;;;;;;;19.51;83.83;94521.81;4932410;29;20031;-79
2021/09/20 08:52:16;;;;;;;10.27;9.17;;;;;;;19.77;85.26;94508.06;4928045;29;20079;-80
2021/09/20 08:54:42;;;;;;;14.23;8.15;;;;;;;20.18;83.45;94501.63;4946002;29;20283;-81
2021/09/20 08:57:08;;;;;;;9.05;8.32;;;;;;;20.20;83.01;94502.94;4931403;29;20023;-81
2021/09/20 08:59:33;;;;;;;7.65;6.95;;;;;;;20.30;82.11;94505.78;4933646;29;20035;-79
2021/09/20 09:01:59;;;;;;;43.67;8.07;;;;;;;20.42;81.63;94489.91;4916381;29;20103;-79
2021/09/20 09:04:33;;;;;;;59.22;10.32;;;;;;;20.49;82.17;94485.22;4911741;29;20036;-79
2021/09/20 09:07:00;;;;;;;873.50;45.33;;;;;;;20.20;82.73;94486.38;4933819;29;20094;-80
2021/09/20 09:09:27;;;;;;;8.00;6.63;;;;;;;19.85;83.40;94469.03;4931263;29;20039;-80
2021/09/20 09:12:06;;;;;;;7.78;6.85;;;;;;;20.38;82.56;94471.16;4931235;29;20028;-79
2021/09/20 09:14:37;;;;;;;7.65;6.95;;;;;;;20.04;82.98;94445.13;4928943;29;20071;-79
2021/09/20 09:17:03;;;;;;;10.23;6.40;;;;;;;20.59;80.20;94479.31;4910996;29;20036;-79
2021/09/20 09:19:28;;;;;;;7.07;6.47;;;;;;;21.09;79.72;94479.13;4911758;29;20496;-77
2021/09/20 09:21:53;;;;;;;6.90;6.20;;;;;;;21.23;79.55;94480.34;4913295;29;20770;-79
2021/09/20 09:24:22;;;;;;;7.80;6.97;;;;;;;22.32;76.06;94476.28;4911666;29;20047;-79
2021/09/20 09:27:13;;;;;;;6.93;6.30;;;;;;;23.31;72.49;94472.75;4918598;29;20296;-84
2021/09/20 09:29:39;;;;;;;10.65;5.72;;;;;;;23.33;69.87;94460.06;4908137;29;20027;-79
2021/09/20 09:32:04;;;;;;;6.32;5.20;;;;;;;23.72;69.27;94460.41;4930194;29;20034;-80
2021/09/20 09:34:31;;;;;;;7.72;5.93;;;;;;;23.77;70.31;94460.41;4931255;29;20030;-79
2021/09/20 09:37:14;;;;;;;5.30;4.63;;;;;;;23.50;71.34;94450.09;4913589;29;20163;-79
2021/09/20 09:39:40;;;;;;;8.50;5.88;;;;;;;22.98;72.86;94435.16;4924929;29;20122;-80
2021/09/20 09:42:28;;;;;;;6.53;5.90;;;;;;;22.89;72.77;94451.75;4927931;29;20028;-79
2021/09/20 09:44:53;;;;;;;13.52;5.55;;;;;;;22.82;73.01;94449.38;4907778;29;20028;-80
2021/09/20 09:47:37;;;;;;;7.15;5.20;;;;;;;22.69;73.92;94455.13;4909923;29;20070;-79
2021/09/20 09:50:17;;;;;;;27.27;11.77;;;;;;;22.64;73.90;94435.75;4939442;29;20424;-79
2021/09/20 09:52:43;;;;;;;12.70;5.25;;;;;;;22.85;74.14;94434.84;4929968;29;20433;-80
2021/09/20 09:55:10;;;;;;;11.48;5.57;;;;;;;23.07;71.86;94432.78;4929605;29;20115;-80
2021/09/20 09:57:35;;;;;;;5.57;4.80;;;;;;;23.60;71.20;94427.06;4907822;29;20490;-80
2021/09/20 10:00:03;;;;;;;8.65;4.70;;;;;;;23.74;70.19;94442.41;4928333;29;20038;-83
2021/09/20 10:02:32;;;;;;;11.82;5.47;;;;;;;24.44;66.93;94426.47;4928892;29;20326;-81
2021/09/20 10:04:58;;;;;;;7.83;4.67;;;;;;;25.28;65.70;94436.19;4928636;29;20051;-81
2021/09/20 10:07:28;;;;;;;6.65;4.35;;;;;;;25.00;64.31;94434.22;4928011;29;20309;-80
2021/09/20 10:09:55;;;;;;;11.23;4.32;;;;;;;24.79;65.11;94432.72;4910998;29;20106;-81
2021/09/20 10:12:27;;;;;;;6.00;4.85;;;;;;;24.82;67.03;94442.81;4927057;29;20114;-79
2021/09/20 10:14:56;;;;;;;8.95;5.20;;;;;;;24.64;67.00;94447.59;4927589;29;20056;-81
2021/09/20 10:17:22;;;;;;;6.32;4.38;;;;;;;24.79;67.37;94449.38;4928248;29;20035;-80
2021/09/20 10:19:47;;;;;;;10.57;4.60;;;;;;;24.61;68.03;94453.44;4926906;29;20123;-87
2021/09/20 10:22:16;;;;;;;14.48;4.88;;;;;;;24.85;68.38;94445.66;4931287;29;20019;-86
2021/09/20 10:24:43;;;;;;;7.32;4.78;;;;;;;24.87;67.63;94448.06;4940633;29;20481;-86
2021/09/20 10:27:13;;;;;;;7.72;4.85;;;;;;;24.84;68.07;94451.25;4932262;29;20131;-82
2021/09/20 10:29:39;;;;;;;11.15;5.53;;;;;;;24.61;70.29;94442.03;4934407;29;20813;-81
2021/09/20 10:32:05;;;;;;;11.10;5.68;;;;;;;24.92;68.93;94448.03;4921623;29;20037;-88
2021/09/20 10:34:30;;;;;;;7.47;5.20;;;;;;;24.84;67.72;94445.97;4930405;29;20027;-86
2021/09/20 10:37:05;;;;;;;8.18;5.05;;;;;;;24.54;68.78;94441.53;4928836;29;20027;-88
2021/09/20 10:39:56;;;;;;;6.07;5.47;;;;;;;24.87;67.80;94440.13;4930875;29;20094;-82
2021/09/20 10:42:33;;;;;;;6.55;5.75;;;;;;;24.75;67.78;94435.13;4938742;29;20030;-86
2021/09/20 10:44:59;;;;;;;8.75;5.53;;;;;;;24.57;67.97;94417.94;4947967;29;20035;-85
2021/09/20 10:47:43;;;;;;;7.78;5.85;;;;;;;25.29;66.87;94434.31;4916632;29;20106;-84
2021/09/20 10:50:09;;;;;;;10.85;5.28;;;;;;;25.64;63.86;94421.66;4933164;29;20027;-88
2021/09/20 10:52:34;;;;;;;52.42;6.32;;;;;;;24.89;64.48;94419.44;4948828;29;20053;-81
2021/09/20 10:55:05;;;;;;;8.80;5.25;;;;;;;24.46;66.27;94419.06;4947372;28;20027;-81
2021/09/20 10:57:31;;;;;;;6.57;5.88;;;;;;;25.03;65.87;94412.47;4936479;29;20087;-80
2021/09/20 11:00:24;;;;;;;12.73;5.00;;;;;;;25.52;64.77;94415.13;4928861;29;20592;-86
2021/09/20 11:02:49;;;;;;;11.25;5.40;;;;;;;25.18;64.44;94401.78;4944750;29;20055;-82
2021/09/20 11:05:15;;;;;;;110.30;8.43;;;;;;;24.67;67.83;94407.31;4929995;29;20093;-82
2021/09/20 11:07:48;;;;;;;11.10;5.47;;;;;;;25.48;65.45;94361.78;4947853;29;20474;-84
2021/09/20 11:10:13;;;;;;;7.25;5.05;;;;;;;25.94;62.05;94387.97;4946643;29;20405;-82
2021/09/20 11:12:58;;;;;;;262.77;17.02;;;;;;;25.81;62.63;94396.56;4945931;29;20110;-81
2021/09/20 11:15:24;;;;;;;13.13;5.90;;;;;;;25.61;60.96;94386.91;4947558;29;20059;-81
2021/09/20 11:17:50;;;;;;;9.45;4.95;;;;;;;26.05;60.58;94386.78;4948072;29;20059;-81
2021/09/20 11:20:30;;;;;;;11.85;5.53;;;;;;;26.37;58.08;94372.91;4935268;29;20060;-81
2021/09/20 11:23:17;;;;;;;12.75;6.18;;;;;;;26.19;58.77;94382.44;4911412;29;20031;-80
2021/09/20 11:26:28;;;;;;;8.88;5.63;;;;;;;26.44;60.15;94397.28;4928566;29;20032;-83
2021/09/20 11:28:53;;;;;;;264.08;14.10;;;;;;;26.76;59.24;94380.69;4924846;29;20040;-82
2021/09/20 11:31:20;;;;;;;19.13;6.47;;;;;;;26.49;57.83;94387.38;4928398;29;20036;-82
2021/09/20 11:33:46;;;;;;;10.23;5.97;;;;;;;26.71;59.48;94378.91;4926921;29;20675;-82
2021/09/20 11:36:17;;;;;;;10.82;6.20;;;;;;;26.88;56.85;94373.91;4939609;29;20032;-80
2021/09/20 11:38:42;;;;;;;136.45;10.90;;;;;;;26.81;57.58;94381.44;4929370;29;20050;-80
2021/09/20 11:41:24;;;;;;;10.50;6.05;;;;;;;26.46;57.67;94368.56;4928159;29;20410;-81
2021/09/20 11:43:51;;;;;;;13.77;6.10;;;;;;;26.59;57.73;94350.06;4929149;29;20043;-84
2021/09/20 11:46:18;;;;;;;8.80;5.72;;;;;;;26.31;55.87;94366.88;4936961;28;20097;-80
2021/09/20 11:48:44;;;;;;;10.80;5.85;;;;;;;26.70;56.06;94358.72;4966673;28;20516;-80
2021/09/20 11:51:09;;;;;;;11.65;5.53;;;;;;;27.04;55.58;94356.66;4965692;28;20035;-79
2021/09/20 11:53:35;;;;;;;9.25;5.22;;;;;;;27.06;55.00;94359.84;4966625;28;20038;-82
2021/09/20 11:56:00;;;;;;;13.48;4.82;;;;;;;27.38;54.74;94355.66;4965925;28;20469;-80
2021/09/20 11:58:26;;;;;;;12.35;6.10;;;;;;;26.85;55.76;94341.78;4966872;28;20023;-80
2021/09/20 12:00:52;;;;;;;11.38;5.78;;;;;;;26.81;54.24;94344.22;4948925;28;20030;-79
2021/09/20 12:03:25;;;;;;;294.23;15.55;;;;;;;26.92;55.29;94336.91;4943944;28;20023;-89
2021/09/20 12:05:51;;;;;;;14.38;5.53;;;;;;;27.26;55.01;94334.78;4938977;29;20098;-82
2021/09/20 12:08:19;;;;;;;136.02;13.07;;;;;;;27.20;53.89;94323.44;4928729;29;20489;-78
2021/09/20 12:10:51;;;;;;;36.67;6.55;;;;;;;26.80;52.72;94297.44;4929533;29;20051;-78
2021/09/20 12:13:24;;;;;;;15.27;5.90;;;;;;;26.93;53.34;94306.59;4949874;29;20452;-79
2021/09/20 12:15:52;;;;;;;11.35;5.82;;;;;;;26.91;53.01;94316.69;4949384;29;20038;-79
2021/09/20 12:18:23;;;;;;;13.57;5.57;;;;;;;27.06;54.27;94306.66;4950211;29;20030;-77
2021/09/20 12:21:00;;;;;;;13.27;5.50;;;;;;;26.49;53.71;94289.06;4949912;29;20501;-77
2021/09/20 12:23:31;;;;;;;11.50;5.43;;;;;;;26.72;54.31;94298.06;4933959;29;20031;-77
2021/09/20 12:26:01;;;;;;;11.73;5.38;;;;;;;26.76;53.51;94283.13;4948759;29;20038;-78
2021/09/20 12:28:27;;;;;;;14.93;5.97;;;;;;;26.92;54.33;94281.06;4933334;29;20407;-79
2021/09/20 12:31:07;;;;;;;6.95;5.07;;;;;;;27.26;54.60;94286.16;4933019;29;20554;-80
2021/09/20 12:33:58;;;;;;;13.43;5.18;;;;;;;27.18;54.00;94269.75;4930862;29;20023;-79
2021/09/20 12:36:32;;;;;;;11.98;5.45;;;;;;;27.06;53.02;94260.66;4949212;29;20110;-79
2021/09/20 12:39:11;;;;;;;18.85;6.05;;;;;;;27.56;52.80;94269.69;4946504;29;20082;-77
2021/09/20 12:41:43;;;;;;;296.60;15.95;;;;;;;27.30;49.54;94268.50;4949260;29;20038;-78
2021/09/20 12:44:09;;;;;;;9.43;3.40;;;;;;;27.38;47.84;94258.00;4949369;29;20031;-79
2021/09/20 12:46:36;;;;;;;23.05;4.15;;;;;;;27.73;48.39;94241.41;4941832;28;20392;-88
2021/09/20 12:49:03;;;;;;;212.50;10.27;;;;;;;27.74;47.13;94247.53;4922330;29;20036;-85
2021/09/20 12:51:39;;;;;;;433.83;19.70;;;;;;;27.50;46.48;94239.72;4912519;29;20473;-78
2021/09/20 12:54:20;;;;;;;170.05;9.80;;;;;;;27.77;47.38;94248.81;4948901;29;20179;-77
2021/09/20 12:56:45;;;;;;;368.58;20.17;;;;;;;27.89;46.96;94249.13;4932178;29;20031;-80
2021/09/20 12:59:19;;;;;;;168.80;8.85;;;;;;;27.53;47.30;94254.28;4931711;29;20493;-79
2021/09/20 13:01:55;;;;;;;864.97;37.75;;;;;;;27.62;47.77;94234.69;4940727;29;20581;-84
2021/09/20 13:23:35;;;;;;;338.40;13.82;;;;;;;27.65;45.00;94233.31;5097756;27;1459123;-80
2021/09/20 13:26:01;;;;;;;387.60;17.92;;;;;;;27.54;44.98;94243.38;5102779;28;20048;-83
2021/09/20 13:28:36;;;;;;;1028.40;44.72;;;;;;;27.54;45.30;94235.38;5102488;28;20024;-79
2021/09/20 13:31:05;;;;;;;55.22;5.45;;;;;;;27.62;45.65;94207.28;5103852;28;20028;-86
2021/09/20 13:33:30;;;;;;;633.60;29.03;;;;;;;27.52;44.51;94234.06;5084457;28;20462;-86
2021/09/20 13:36:00;;;;;;;1054.65;44.53;;;;;;;27.60;45.37;94239.53;5103173;28;20089;-85
2021/09/20 13:38:27;;;;;;;921.08;44.17;;;;;;;27.13;45.79;94237.16;5085292;28;20035;-86
2021/09/20 13:40:54;;;;;;;1223.55;56.75;;;;;;;27.21;46.10;94231.94;5087332;28;20034;-80
2021/09/20 13:43:20;;;;;;;76.40;5.32;;;;;;;27.43;46.81;94228.66;5105768;28;20022;-77
2021/09/20 13:45:45;;;;;;;581.20;27.92;;;;;;;27.60;46.67;94226.22;5099077;28;20023;-78
2021/09/20 13:48:12;;;;;;;9.65;3.63;;;;;;;27.59;46.78;94247.78;5086781;28;20059;-82
2021/09/20 13:50:38;;;;;;;51.88;5.15;;;;;;;27.67;46.23;94252.47;5096663;28;20031;-83
2021/09/20 13:53:04;;;;;;;73.90;5.82;;;;;;;27.83;47.27;94250.28;5070864;28;20165;-82
2021/09/20 13:55:29;;;;;;;432.63;22.48;;;;;;;27.49;47.80;94250.63;5104256;28;20106;-85
2021/09/20 13:57:55;;;;;;;10.40;3.70;;;;;;;27.10;48.09;94246.47;5122352;28;20039;-83
2021/09/20 14:00:21;;;;;;;8.55;4.68;;;;;;;27.35;48.74;94265.78;5105887;28;20027;-86
2021/09/20 14:02:46;;;;;;;236.43;11.90;;;;;;;27.10;48.02;94266.97;5105173;28;20027;-79
2021/09/20 14:05:14;;;;;;;6.30;3.28;;;;;;;27.39;48.76;94275.53;5089009;28;20024;-80
2021/09/20 14:07:39;;;;;;;146.40;8.13;;;;;;;26.90;49.04;94261.97;5120812;28;20027;-84
2021/09/20 14:10:06;;;;;;;206.35;10.73;;;;;;;26.84;50.44;94260.47;5123356;28;20537;-79
2021/09/20 14:12:32;;;;;;;9.55;3.80;;;;;;;26.79;50.43;94263.94;5104636;28;20437;-79
2021/09/20 14:14:57;;;;;;;40.13;4.60;;;;;;;26.55;49.25;94265.91;5123339;28;20165;-82
2021/09/20 14:17:23;;;;;;;28.67;3.85;;;;;;;26.66;47.98;94275.31;5098830;28;20039;-81
2021/09/20 14:19:52;;;;;;;6.50;2.13;;;;;;;26.64;46.16;94272.94;5104246;28;20027;-81
2021/09/20 14:22:18;;;;;;;10.38;2.53;;;;;;;26.58;47.65;94276.75;5101745;28;20162;-81
2021/09/20 14:24:43;;;;;;;5.57;2.63;;;;;;;26.43;48.09;94261.00;5070566;28;20028;-84
2021/09/20 14:27:09;;;;;;;6.45;2.70;;;;;;;26.40;46.77;94266.09;5088389;28;20203;-84
2021/09/20 14:29:34;;;;;;;3.95;2.78;;;;;;;26.30;47.88;94282.94;5087338;28;20038;-83
2021/09/20 14:32:00;;;;;;;68.88;4.55;;;;;;;25.93;49.16;94296.09;5071485;28;20475;-84
2021/09/20 14:34:26;;;;;;;181.07;8.93;;;;;;;25.60;51.52;94309.16;5087110;28;20032;-80
2021/09/20 14:36:51;;;;;;;414.70;18.45;;;;;;;25.22;54.62;94323.25;5071839;28;20020;-84
2021/09/20 14:39:16;;;;;;;290.65;13.57;;;;;;;25.22;55.59;94335.72;5088089;28;20028;-82
2021/09/20 14:41:42;;;;;;;48.60;4.60;;;;;;;25.02;55.86;94337.44;5071526;28;20019;-83
2021/09/20 14:44:07;;;;;;;227.25;12.25;;;;;;;24.87;56.35;94340.22;5055875;28;20102;-85
2021/09/20 14:46:33;;;;;;;242.82;10.18;;;;;;;24.79;57.01;94372.53;5084227;28;20035;-83
2021/09/20 14:48:58;;;;;;;107.78;6.78;;;;;;;24.49;55.69;94370.84;5075891;28;20035;-80
2021/09/20 14:51:24;;;;;;;73.93;5.70;;;;;;;24.36;56.53;94418.28;5107849;28;20035;-81
2021/09/20 14:53:50;;;;;;;167.88;16.38;;;;;;;22.80;59.05;94393.34;5110096;28;20043;-79
2021/09/20 14:56:16;;;;;;;40.40;5.75;;;;;;;22.28;61.91;94438.25;5107334;28;20055;-81
2021/09/20 14:58:41;;;;;;;250.63;12.90;;;;;;;21.78;62.80;94429.97;5108212;28;20024;-80
2021/09/20 15:01:07;;;;;;;415.40;32.03;;;;;;;21.57;63.57;94438.78;5072343;28;20123;-78
2021/09/20 15:03:37;;;;;;;259.20;14.88;;;;;;;21.03;65.52;94444.00;5091184;28;20035;-77
2021/09/20 15:06:03;;;;;;;;;;;;;;;20.67;66.50;94465.75;5092686;28;20020;-76
2021/09/20 15:08:32;;;;;;;1107.68;66.07;;;;;;;20.48;67.02;94466.00;5107178;28;19918;-78
2021/09/20 15:10:58;;;;;;;165.80;11.90;;;;;;;20.19;68.20;94463.75;5091968;28;20028;-78
2021/09/20 15:13:24;;;;;;;1466.30;109.22;;;;;;;19.98;69.25;94479.22;5089922;28;20080;-78
2021/09/20 15:15:49;;;;;;;176.05;11.90;;;;;;;19.49;69.75;94448.47;5090840;28;20170;-75
2021/09/20 15:18:15;;;;;;;1274.45;80.28;;;;;;;19.59;70.66;94484.63;5105041;28;20120;-77
2021/09/20 15:20:40;;;;;;;112.80;8.15;;;;;;;19.56;70.88;94504.31;5069616;28;20032;-77
2021/09/20 15:23:06;;;;;;;9.30;4.90;;;;;;;19.65;71.09;94505.50;5089250;28;20052;-78
2021/09/20 15:25:31;;;;;;;651.00;30.75;;;;;;;19.35;72.49;94491.81;5087128;28;20093;-77
2021/09/20 15:27:57;;;;;;;207.18;13.82;;;;;;;19.47;72.11;94513.59;5071792;28;20024;-77
2021/09/20 15:30:22;;;;;;;831.65;45.47;;;;;;;19.35;72.15;94510.22;5070278;28;20027;-77
2021/09/20 15:32:48;;;;;;;233.20;15.32;;;;;;;19.31;72.60;94519.59;5071441;28;20434;-78
2021/09/20 15:35:13;;;;;;;6.43;5.53;;;;;;;19.32;73.10;94527.25;5069362;28;20065;-78
2021/09/20 15:37:39;;;;;;;905.67;47.17;;;;;;;19.21;72.96;94527.28;5088096;28;20531;-77
2021/09/20 15:40:06;;;;;;;299.25;22.05;;;;;;;19.06;73.40;94527.78;5087794;28;20023;-77
2021/09/20 15:42:35;;;;;;;7.65;4.78;;;;;;;19.17;73.47;94534.81;5070599;28;20377;-78
2021/09/20 15:45:01;;;;;;;7.07;4.80;;;;;;;19.21;73.34;94545.66;5088033;28;20032;-82
2021/09/20 15:47:26;;;;;;;5.47;4.90;;;;;;;19.31;72.18;94548.47;5069324;28;20569;-78
2021/09/20 15:49:51;;;;;;;10.35;5.15;;;;;;;19.27;72.80;94556.03;5088275;28;20416;-78
2021/09/20 15:52:17;;;;;;;10.55;5.00;;;;;;;19.21;73.83;94556.16;5086144;28;20032;-77
2021/09/20 15:54:42;;;;;;;1148.10;93.10;;;;;;;18.96;74.18;94566.97;5071344;28;20412;-77
2021/09/20 15:57:08;;;;;;;8.55;4.90;;;;;;;18.93;75.03;94567.44;5088135;28;20035;-79
2021/09/20 15:59:33;;;;;;;51.05;6.85;;;;;;;18.71;75.42;94575.13;5088910;28;20016;-83
2021/09/20 16:01:59;;;;;;;24.85;5.57;;;;;;;18.92;76.05;94582.38;5054084;28;20039;-78
2021/09/20 16:04:24;;;;;;;7.32;4.53;;;;;;;18.79;74.95;94577.38;5086646;28;20031;-78
2021/09/20 16:06:50;;;;;;;1171.70;72.85;;;;;;;18.67;76.02;94587.09;5070667;28;20444;-76
2021/09/20 16:09:16;;;;;;;141.40;12.50;;;;;;;18.40;77.07;94572.78;5069636;28;20472;-77
2021/09/20 16:11:42;;;;;;;9.68;4.68;;;;;;;18.62;76.66;94578.31;5087692;28;20080;-76
2021/09/20 16:14:08;;;;;;;5.75;5.07;;;;;;;18.61;76.95;94602.94;5069325;28;20114;-78
2021/09/20 16:16:34;;;;;;;20.40;6.60;;;;;;;18.41;77.27;94598.00;5070915;28;20083;-76
2021/09/20 16:18:59;;;;;;;495.20;26.63;;;;;;;18.36;77.19;94601.31;5086707;28;20024;-76
2021/09/20 16:21:25;;;;;;;305.55;17.15;;;;;;;18.35;77.78;94604.97;5086435;28;20381;-80
2021/09/20 16:23:50;;;;;;;31.42;5.97;;;;;;;18.26;78.36;94603.72;5087805;28;20043;-76
2021/09/20 16:26:16;;;;;;;121.30;10.55;;;;;;;18.14;78.95;94615.22;5085427;28;20043;-77
2021/09/20 16:28:41;;;;;;;5.88;4.97;;;;;;;18.06;79.83;94626.81;5087603;28;20431;-77
2021/09/20 16:31:08;;;;;;;6.53;4.80;;;;;;;18.01;80.34;94639.78;5068774;28;20469;-78
2021/09/20 16:33:35;;;;;;;5.97;5.35;;;;;;;18.01;80.39;94649.47;5071023;28;20057;-78
2021/09/20 16:36:00;;;;;;;98.60;9.27;;;;;;;17.85;80.94;94622.09;5087084;28;20114;-77
2021/09/20 16:38:26;;;;;;;1999.90;185.50;;;;;;;17.76;81.52;94626.03;5053541;28;20089;-81
2021/09/20 16:40:52;;;;;;;6.47;4.97;;;;;;;17.72;82.25;94638.00;5087046;28;20115;-77
2021/09/20 16:43:18;;;;;;;25.83;6.30;;;;;;;17.67;82.46;94635.22;5087194;28;20019;-76